createdAt,value
2022-12-26T00:01:22.011Z,96645.59
2022-12-26T00:03:48.473Z,96639.88
2022-12-26T00:06:15.695Z,96634.16
2022-12-26T00:08:42.591Z,96633.06
2022-12-26T00:11:09.142Z,96630.75
2022-12-26T00:13:38.138Z,96638.53
2022-12-26T00:16:10.369Z,96644.38
2022-12-26T00:18:36.966Z,96637.44
2022-12-26T00:21:03.601Z,96646.13
2022-12-26T00:23:31.358Z,96650.38
2022-12-26T00:26:01.619Z,96655.53
2022-12-26T00:28:28.228Z,96647.78
2022-12-26T00:30:54.838Z,96646.69
2022-12-26T00:33:21.407Z,96647.34
2022-12-26T00:35:47.835Z,96655.94
2022-12-26T00:38:14.356Z,96665.31
2022-12-26T00:40:43.599Z,96658.78
2022-12-26T00:43:10.267Z,96658.22
2022-12-26T00:45:36.797Z,96658.22
2022-12-26T00:48:03.286Z,96657.56
2022-12-26T00:50:34.348Z,96660.56
2022-12-26T00:53:01.337Z,96661.22
2022-12-26T00:55:27.846Z,96654.84
2022-12-26T00:57:54.370Z,96653.19
2022-12-26T01:00:20.981Z,96645.56
2022-12-26T01:02:47.553Z,96645.88
2022-12-26T01:05:14.110Z,96645.88
2022-12-26T01:08:21.387Z,96659.03
2022-12-26T01:10:27.191Z,96650.34
2022-12-26T01:12:53.676Z,96665.84
2022-12-26T01:15:20.147Z,96668.69
2022-12-26T01:17:46.590Z,96668.03
2022-12-26T01:20:13.059Z,96661.78
2022-12-26T01:22:39.489Z,96661.63
2022-12-26T01:25:06.160Z,96647.75
2022-12-26T01:27:32.630Z,96645.97
2022-12-26T01:29:59.120Z,96657.56
2022-12-26T01:32:25.646Z,96665.44
2022-12-26T01:34:55.659Z,96656.34
2022-12-26T01:37:23.514Z,96665.31
2022-12-26T01:39:50.002Z,96661.63
2022-12-26T01:42:17.085Z,96655.66
2022-12-26T01:44:52.409Z,96659.75
2022-12-26T01:47:18.901Z,96655.25
2022-12-26T01:49:46.276Z,96663.81
2022-12-26T01:52:15.064Z,96656.19
2022-12-26T01:54:42.977Z,96640.03
2022-12-26T01:57:28.880Z,96649.66
2022-12-26T01:59:55.420Z,96651.03
2022-12-26T02:02:22.292Z,96650.91
2022-12-26T02:05:08.059Z,96651.03
2022-12-26T02:07:35.106Z,96654.31
2022-12-26T02:10:01.752Z,96638.81
2022-12-26T02:12:35.861Z,96622.19
2022-12-26T02:15:08.958Z,96621.94
2022-12-26T02:17:36.051Z,96625.44
2022-12-26T02:20:10.234Z,96633.19
2022-12-26T02:22:36.683Z,96631.03
2022-12-26T02:25:40.232Z,96638.94
2022-12-26T02:28:26.095Z,96630.75
2022-12-26T02:30:55.627Z,96632.28
2022-12-26T02:33:39.962Z,96625.44
2022-12-26T02:36:13.855Z,96617.03
2022-12-26T02:38:52.621Z,96612.97
2022-12-26T02:41:26.733Z,96620.03
2022-12-26T02:44:25.437Z,96618.66
2022-12-26T02:47:03.863Z,96614.31
2022-12-26T02:49:30.288Z,96619.88
2022-12-26T02:52:21.594Z,96619.88
2022-12-26T02:55:14.238Z,96615.13
2022-12-26T02:58:05.090Z,96625.19
2022-12-26T03:00:50.211Z,96616.63
2022-12-26T03:03:36.017Z,96612.00
2022-12-26T03:06:21.386Z,96610.50
2022-12-26T03:09:11.509Z,96616.78
2022-12-26T03:11:57.518Z,96611.75
2022-12-26T03:14:28.558Z,96597.88
2022-12-26T03:17:20.069Z,96608.22
2022-12-26T03:20:00.289Z,96599.50
2022-12-26T03:22:30.864Z,96595.28
2022-12-26T03:25:16.524Z,96603.19
2022-12-26T03:27:43.056Z,96609.72
2022-12-26T03:30:28.213Z,96625.88
2022-12-26T03:32:57.923Z,96633.91
2022-12-26T03:35:24.639Z,96627.25
2022-12-26T03:37:59.441Z,96637.84
2022-12-26T03:40:48.099Z,96626.56
2022-12-26T03:43:39.030Z,96623.03
2022-12-26T03:46:24.314Z,96613.78
2022-12-26T03:49:12.941Z,96612.28
2022-12-26T03:52:12.691Z,96604.94
2022-12-26T03:55:16.188Z,96610.13
2022-12-26T03:58:08.810Z,96608.75
2022-12-26T04:00:53.982Z,96624.91
2022-12-26T04:03:39.128Z,96623.44
2022-12-26T04:06:24.408Z,96622.75
2022-12-26T04:09:19.692Z,96618.25
2022-12-26T04:12:04.860Z,96624.38
2022-12-26T04:15:09.744Z,96625.50
2022-12-26T04:18:15.297Z,96629.97
2022-12-26T04:20:43.768Z,96626.69
2022-12-26T04:23:33.899Z,96625.63
2022-12-26T04:26:33.425Z,96632.69
2022-12-26T04:29:18.529Z,96640.16
2022-12-26T04:32:07.009Z,96652.53
2022-12-26T04:35:04.583Z,96657.94
2022-12-26T04:37:49.732Z,96657.53
2022-12-26T04:40:36.855Z,96664.59
2022-12-26T04:43:48.894Z,96665.81
2022-12-26T04:46:08.826Z,96660.66
2022-12-26T04:48:59.592Z,96672.06
2022-12-26T04:51:26.228Z,96661.06
2022-12-26T04:53:52.657Z,96657.78
2022-12-26T04:56:19.321Z,96658.22
2022-12-26T04:58:45.765Z,96666.50
2022-12-26T05:01:30.991Z,96644.75
2022-12-26T05:04:16.413Z,96649.41
2022-12-26T05:07:01.541Z,96642.31
2022-12-26T05:09:37.455Z,96649.94
2022-12-26T05:12:05.222Z,96649.38
2022-12-26T05:14:31.961Z,96646.78
2022-12-26T05:17:17.688Z,96645.16
2022-12-26T05:20:02.819Z,96654.78
2022-12-26T05:22:50.323Z,96659.13
2022-12-26T05:25:35.811Z,96651.38
2022-12-26T05:28:21.212Z,96659.13
2022-12-26T05:30:47.713Z,96653.44
2022-12-26T05:33:33.114Z,96652.75
2022-12-26T05:35:59.529Z,96661.81
2022-12-26T05:38:25.974Z,96666.69
2022-12-26T05:40:52.435Z,96659.25
2022-12-26T05:43:19.880Z,96666.97
2022-12-26T05:45:46.472Z,96691.84
2022-12-26T05:48:12.958Z,96687.06
2022-12-26T05:50:39.433Z,96688.41
2022-12-26T05:53:05.924Z,96689.06
2022-12-26T05:55:32.509Z,96686.63
2022-12-26T05:58:02.005Z,96696.59
2022-12-26T06:00:30.036Z,96701.75
2022-12-26T06:02:56.848Z,96710.03
2022-12-26T06:05:23.314Z,96700.94
2022-12-26T06:07:49.737Z,96699.91
2022-12-26T06:10:16.393Z,96686.59
2022-12-26T06:12:42.824Z,96683.03
2022-12-26T06:15:09.515Z,96686.66
2022-12-26T06:17:36.264Z,96691.56
2022-12-26T06:20:02.730Z,96689.94
2022-12-26T06:22:29.447Z,96690.91
2022-12-26T06:24:56.096Z,96687.63
2022-12-26T06:27:22.585Z,96670.38
2022-12-26T06:29:49.003Z,96666.75
2022-12-26T06:32:15.476Z,96673.66
2022-12-26T06:34:41.928Z,96689.56
2022-12-26T06:37:08.589Z,96702.31
2022-12-26T06:39:35.053Z,96704.78
2022-12-26T06:42:01.483Z,96695.72
2022-12-26T06:44:27.940Z,96694.66
2022-12-26T06:46:54.451Z,96708.38
2022-12-26T06:49:21.031Z,96695.88
2022-12-26T06:51:47.923Z,96698.88
2022-12-26T06:54:14.384Z,96703.81
2022-12-26T06:56:41.084Z,96697.56
2022-12-26T06:59:07.563Z,96711.97
2022-12-26T07:01:34.579Z,96712.28
2022-12-26T07:04:01.307Z,96709.31
2022-12-26T07:06:31.025Z,96708.91
2022-12-26T07:08:58.418Z,96703.91
2022-12-26T07:11:25.668Z,96692.66
2022-12-26T07:13:52.433Z,96693.22
2022-12-26T07:16:18.917Z,96685.88
2022-12-26T07:18:45.391Z,96691.03
2022-12-26T07:21:12.714Z,96709.53
2022-12-26T07:23:39.185Z,96707.38
2022-12-26T07:26:05.824Z,96712.38
2022-12-26T07:28:32.249Z,96714.34
2022-12-26T07:31:00.610Z,96708.78
2022-12-26T07:33:27.751Z,96708.91
2022-12-26T07:35:54.268Z,96712.06
2022-12-26T07:38:20.742Z,96720.34
2022-12-26T07:40:47.241Z,96713.16
2022-12-26T07:43:13.663Z,96717.78
2022-12-26T07:45:45.418Z,96714.66
2022-12-26T07:48:12.345Z,96716.72
2022-12-26T07:50:38.882Z,96722.00
2022-12-26T07:53:05.305Z,96724.06
2022-12-26T07:55:31.817Z,96740.13
2022-12-26T07:57:58.294Z,96740.91
2022-12-26T08:00:24.755Z,96732.94
2022-12-26T08:02:51.315Z,96735.50
2022-12-26T08:05:17.904Z,96733.31
2022-12-26T08:07:46.336Z,96730.03
2022-12-26T08:10:12.781Z,96729.09
2022-12-26T08:12:39.251Z,96734.94
2022-12-26T08:15:05.976Z,96742.69
2022-12-26T08:17:32.910Z,96738.06
2022-12-26T08:19:59.520Z,96738.91
2022-12-26T08:22:26.017Z,96746.91
2022-12-26T08:24:52.570Z,96739.97
2022-12-26T08:27:19.210Z,96733.44
2022-12-26T08:29:45.676Z,96728.41
2022-12-26T08:32:12.180Z,96727.44
2022-12-26T08:34:38.862Z,96735.22
2022-12-26T08:37:05.578Z,96729.09
2022-12-26T08:39:32.081Z,96723.94
2022-12-26T08:41:58.616Z,96731.53
2022-12-26T08:44:27.142Z,96733.44
2022-12-26T08:46:54.086Z,96743.22
2022-12-26T08:49:20.536Z,96748.53
2022-12-26T08:51:47.093Z,96756.25
2022-12-26T08:54:13.587Z,96761.41
2022-12-26T08:56:40.160Z,96768.47
2022-12-26T08:59:06.671Z,96769.66
2022-12-26T09:01:33.335Z,96764.63
2022-12-26T09:04:02.085Z,96770.78
2022-12-26T09:06:28.689Z,96777.59
2022-12-26T09:08:55.117Z,96774.94
2022-12-26T09:11:22.686Z,96775.78
2022-12-26T09:13:49.335Z,96775.78
2022-12-26T09:16:16.968Z,96762.84
2022-12-26T09:18:43.919Z,96757.78
2022-12-26T09:21:10.839Z,96760.09
2022-12-26T09:23:38.582Z,96757.94
2022-12-26T09:26:08.920Z,96741.72
2022-12-26T09:28:35.446Z,96734.22
2022-12-26T09:31:02.515Z,96741.41
2022-12-26T09:33:29.683Z,96747.34
2022-12-26T09:36:01.536Z,96732.44
2022-12-26T09:38:30.520Z,96726.13
2022-12-26T09:41:02.811Z,96716.13
2022-12-26T09:43:35.365Z,96726.97
2022-12-26T09:46:07.434Z,96711.75
2022-12-26T09:48:43.908Z,96713.16
2022-12-26T09:51:10.685Z,96692.03
2022-12-26T09:53:37.583Z,96693.31
2022-12-26T09:56:05.686Z,96692.91
2022-12-26T09:58:41.353Z,96691.88
2022-12-26T10:01:13.595Z,96697.94
2022-12-26T10:03:41.218Z,96699.41
2022-12-26T10:06:09.704Z,96687.25
2022-12-26T10:08:54.876Z,96685.31
2022-12-26T10:11:39.644Z,96696.16
2022-12-26T10:14:21.368Z,96686.75
2022-12-26T10:16:48.352Z,96682.38
2022-12-26T10:19:21.030Z,96680.75
2022-12-26T10:21:50.270Z,96672.97
2022-12-26T10:24:17.967Z,96680.41
2022-12-26T10:26:47.255Z,96666.69
2022-12-26T10:29:49.399Z,96668.53
2022-12-26T10:32:27.832Z,96670.34
2022-12-26T10:34:54.735Z,96659.06
2022-12-26T10:37:31.046Z,96656.66
2022-12-26T10:40:07.779Z,96669.81
2022-12-26T10:42:35.038Z,96664.78
2022-12-26T10:45:01.546Z,96662.84
2022-12-26T10:47:29.981Z,96657.19
2022-12-26T10:49:59.992Z,96655.94
2022-12-26T10:52:28.051Z,96656.91
2022-12-26T10:55:27.122Z,96655.13
2022-12-26T10:57:43.300Z,96649.28
2022-12-26T11:00:16.195Z,96645.88
2022-12-26T11:02:43.001Z,96651.75
2022-12-26T11:05:18.407Z,96637.28
2022-12-26T11:07:57.710Z,96640.22
2022-12-26T11:10:24.900Z,96637.78
2022-12-26T11:12:55.253Z,96627.06
2022-12-26T11:15:41.135Z,96648.63
2022-12-26T11:18:18.577Z,96643.28
2022-12-26T11:20:45.109Z,96640.50
2022-12-26T11:23:13.468Z,96644.25
2022-12-26T11:26:09.405Z,96639.53
2022-12-26T11:28:36.530Z,96640.03
2022-12-26T11:31:06.537Z,96634.97
2022-12-26T11:33:43.383Z,96636.75
2022-12-26T11:36:10.092Z,96627.69
2022-12-26T11:38:45.675Z,96629.47
2022-12-26T11:41:33.173Z,96631.03
2022-12-26T11:44:15.031Z,96629.56
2022-12-26T11:46:42.525Z,96636.50
2022-12-26T11:49:18.345Z,96635.00
2022-12-26T11:51:46.223Z,96631.56
2022-12-26T11:54:16.524Z,96647.88
2022-12-26T11:56:43.165Z,96636.88
2022-12-26T11:59:16.618Z,96638.00
2022-12-26T12:01:43.446Z,96651.91
2022-12-26T12:04:10.355Z,96638.63
2022-12-26T12:06:37.000Z,96657.22
2022-12-26T12:09:22.439Z,96654.94
2022-12-26T12:11:55.296Z,96646.78
2022-12-26T12:14:27.893Z,96641.41
2022-12-26T12:17:17.851Z,96635.56
2022-12-26T12:20:00.979Z,96635.41
2022-12-26T12:22:27.460Z,96628.91
2022-12-26T12:25:00.145Z,96629.53
2022-12-26T12:27:31.070Z,96635.97
2022-12-26T12:30:03.576Z,96634.84
2022-12-26T12:32:30.222Z,96625.44
2022-12-26T12:35:15.607Z,96639.66
2022-12-26T12:37:45.332Z,96638.03
2022-12-26T12:43:59.824Z,96644.19
2022-12-26T12:46:32.631Z,96643.38
2022-12-26T12:49:14.399Z,96635.56
2022-12-26T12:51:56.595Z,96633.38
2022-12-26T12:54:41.840Z,96634.78
2022-12-26T12:57:12.174Z,96644.34
2022-12-26T12:59:49.406Z,96645.97
2022-12-26T13:02:20.735Z,96636.69
2022-12-26T13:04:48.854Z,96626.94
2022-12-26T13:07:20.811Z,96622.72
2022-12-26T13:09:49.403Z,96631.03
2022-12-26T13:12:17.759Z,96615.91
2022-12-26T13:14:45.458Z,96614.94
2022-12-26T13:17:16.563Z,96615.91
2022-12-26T13:19:48.682Z,96615.25
2022-12-26T13:22:21.189Z,96601.63
2022-12-26T13:24:49.750Z,96610.16
2022-12-26T13:27:18.442Z,96621.63
2022-12-26T13:29:45.655Z,96618.94
2022-12-26T13:35:53.199Z,96610.16
2022-12-26T13:38:20.294Z,96609.34
2022-12-26T13:41:26.316Z,96610.97
2022-12-26T13:44:05.802Z,96615.13
2022-12-26T13:46:35.281Z,96608.00
2022-12-26T13:49:01.779Z,96603.72
2022-12-26T13:51:41.532Z,96601.13
2022-12-26T13:54:09.460Z,96605.63
2022-12-26T13:56:45.801Z,96616.97
2022-12-26T13:59:29.383Z,96607.03
2022-12-26T14:02:07.125Z,96617.41
2022-12-26T14:04:52.858Z,96620.59
2022-12-26T14:07:22.130Z,96608.75
2022-12-26T14:09:58.589Z,96608.22
2022-12-26T14:12:43.701Z,96622.47
2022-12-26T14:15:29.708Z,96624.34
2022-12-26T14:18:03.104Z,96624.22
2022-12-26T14:20:39.877Z,96624.13
2022-12-26T14:23:15.713Z,96618.44
2022-12-26T14:25:50.576Z,96627.63
2022-12-26T14:35:16.063Z,96627.81
2022-12-26T14:38:01.390Z,96621.81
2022-12-26T14:40:27.890Z,96618.97
2022-12-26T14:43:12.888Z,96624.72
2022-12-26T14:45:41.878Z,96616.47
2022-12-26T14:48:17.576Z,96620.69
2022-12-26T14:50:48.171Z,96615.66
2022-12-26T14:53:29.980Z,96615.91
2022-12-26T14:56:00.098Z,96625.31
2022-12-26T14:58:45.179Z,96613.34
2022-12-26T15:01:20.760Z,96612.94
2022-12-26T15:03:59.303Z,96618.44
2022-12-26T15:06:25.772Z,96607.94
2022-12-26T15:09:04.502Z,96605.75
2022-12-26T15:11:49.851Z,96614.78
2022-12-26T15:14:19.340Z,96617.66
2022-12-26T15:17:03.883Z,96597.09
2022-12-26T15:19:49.063Z,96591.78
2022-12-26T15:22:27.757Z,96592.59
2022-12-26T15:27:52.756Z,96596.72
2022-12-26T15:30:20.312Z,96597.81
2022-12-26T15:32:46.724Z,96586.22
2022-12-26T15:35:33.734Z,96593.97
2022-12-26T15:38:00.284Z,96588.41
2022-12-26T15:40:27.720Z,96594.69
2022-12-26T15:43:12.493Z,96579.84
2022-12-26T15:45:39.511Z,96563.66
2022-12-26T15:48:12.781Z,96565.69
2022-12-26T15:50:59.579Z,96566.81
2022-12-26T15:53:44.667Z,96585.59
2022-12-26T15:56:29.922Z,96593.50
2022-12-26T15:59:09.689Z,96604.09
2022-12-26T16:05:20.997Z,96633.91
2022-12-26T16:07:47.400Z,96645.63
2022-12-26T16:10:22.683Z,96650.56
2022-12-26T16:12:57.384Z,96657.78
2022-12-26T16:15:25.217Z,96656.28
2022-12-26T16:17:51.735Z,96664.06
2022-12-26T16:20:19.012Z,96669.13
2022-12-26T16:22:48.669Z,96659.84
2022-12-26T16:25:16.902Z,96663.91
2022-12-26T16:27:43.400Z,96660.78
2022-12-26T16:30:14.386Z,96662.03
2022-12-26T16:32:41.709Z,96661.63
2022-12-26T16:35:14.952Z,96667.34
2022-12-26T16:37:41.448Z,96668.03
2022-12-26T16:40:12.535Z,96659.03
2022-12-26T16:42:39.070Z,96659.84
2022-12-26T16:45:05.781Z,96669.38
2022-12-26T16:47:32.301Z,96662.03
2022-12-26T16:49:59.211Z,96666.28
2022-12-26T16:52:30.382Z,96668.97
2022-12-26T16:54:56.845Z,96674.13
2022-12-26T16:57:23.390Z,96676.63
2022-12-26T16:59:56.916Z,96676.31
2022-12-26T17:02:26.768Z,96671.44
2022-12-26T17:05:02.194Z,96682.44
2022-12-26T17:07:28.640Z,96674.69
2022-12-26T17:09:56.266Z,96670.22
2022-12-26T17:12:24.182Z,96662.59
2022-12-26T17:14:50.694Z,96658.22
2022-12-26T17:17:20.255Z,96650.63
2022-12-26T17:19:52.082Z,96639.47
2022-12-26T17:22:35.176Z,96635.13
2022-12-26T17:25:13.885Z,96629.28
2022-12-26T17:27:40.348Z,96639.22
2022-12-26T17:30:39.224Z,96633.63
2022-12-26T17:33:10.043Z,96639.34
2022-12-26T17:36:13.537Z,96632.69
2022-12-26T17:38:24.089Z,96635.28
2022-12-26T17:40:52.618Z,96610.25
2022-12-26T17:43:39.460Z,96609.56
2022-12-26T17:46:06.517Z,96587.94
2022-12-26T17:48:33.166Z,96571.13
2022-12-26T17:51:00.401Z,96553.69
2022-12-26T17:53:32.403Z,96529.50
2022-12-26T17:56:05.859Z,96549.63
2022-12-26T17:58:32.423Z,96550.72
2022-12-26T18:00:59.383Z,96563.09
2022-12-26T18:03:25.935Z,96575.47
2022-12-26T18:05:52.703Z,96568.13
2022-12-26T18:08:35.404Z,96570.16
2022-12-26T18:11:02.431Z,96583.91
2022-12-26T18:13:29.160Z,96587.28
2022-12-26T18:15:56.262Z,96601.97
2022-12-26T18:18:23.112Z,96606.72
2022-12-26T18:20:50.296Z,96614.84
2022-12-26T18:23:16.940Z,96618.00
2022-12-26T18:25:43.459Z,96630.75
2022-12-26T18:28:13.338Z,96646.53
2022-12-26T18:30:39.852Z,96654.13
2022-12-26T18:33:06.361Z,96657.00
2022-12-26T18:35:32.814Z,96654.28
2022-12-26T18:37:59.315Z,96654.94
2022-12-26T18:40:36.140Z,96651.03
2022-12-26T18:43:02.889Z,96660.25
2022-12-26T18:45:29.571Z,96655.91
2022-12-26T18:47:56.444Z,96652.78
2022-12-26T18:50:23.039Z,96654.00
2022-12-26T18:52:53.491Z,96661.31
2022-12-26T18:55:21.327Z,96656.31
2022-12-26T18:57:47.896Z,96666.34
2022-12-26T19:00:14.925Z,96677.09
2022-12-26T19:02:42.502Z,96668.28
2022-12-26T19:05:31.631Z,96666.13
2022-12-26T19:07:58.577Z,96678.63
2022-12-26T19:10:26.359Z,96691.53
2022-12-26T19:12:53.000Z,96693.44
2022-12-26T19:15:20.717Z,96680.50
2022-12-26T19:17:47.245Z,96685.94
2022-12-26T19:20:18.348Z,96687.69
2022-12-26T19:22:45.343Z,96694.09
2022-12-26T19:25:12.080Z,96673.72
2022-12-26T19:27:38.619Z,96677.50
2022-12-26T19:30:05.271Z,96672.50
2022-12-26T19:32:32.043Z,96671.94
2022-12-26T19:34:59.306Z,96666.09
2022-12-26T19:37:26.067Z,96667.31
2022-12-26T19:39:52.676Z,96652.38
2022-12-26T19:42:19.222Z,96659.41
2022-12-26T19:44:46.156Z,96659.03
2022-12-26T19:47:13.172Z,96661.72
2022-12-26T19:49:40.819Z,96658.59
2022-12-26T19:52:07.745Z,96661.44
2022-12-26T19:54:34.530Z,96637.69
2022-12-26T19:57:01.394Z,96646.34
2022-12-26T19:59:28.098Z,96636.53
2022-12-26T20:01:54.670Z,96635.06
2022-12-26T20:04:21.688Z,96630.97
2022-12-26T20:06:48.530Z,96646.34
2022-12-26T20:09:15.308Z,96650.69
2022-12-26T20:11:43.162Z,96653.50
2022-12-26T20:14:12.493Z,96655.72
2022-12-26T20:17:05.009Z,96656.00
2022-12-26T20:19:26.015Z,96645.81
2022-12-26T20:21:52.926Z,96660.19
2022-12-26T20:24:21.790Z,96658.72
2022-12-26T20:26:49.181Z,96651.78
2022-12-26T20:29:17.999Z,96637.13
2022-12-26T20:31:44.655Z,96624.75
2022-12-26T20:34:11.599Z,96636.97
2022-12-26T20:36:38.199Z,96648.63
2022-12-26T20:39:09.240Z,96654.19
2022-12-26T20:41:35.790Z,96658.25
2022-12-26T20:44:02.347Z,96653.22
2022-12-26T20:46:44.324Z,96643.59
2022-12-26T20:49:10.852Z,96644.53
2022-12-26T20:55:06.326Z,96658.25
2022-12-26T20:57:32.727Z,96655.25
2022-12-26T20:59:59.226Z,96654.56
2022-12-26T21:02:25.789Z,96643.97
2022-12-26T21:04:52.714Z,96630.50
2022-12-26T21:07:19.325Z,96643.66
2022-12-26T21:09:46.847Z,96656.00
2022-12-26T21:12:13.737Z,96658.19
2022-12-26T21:14:40.430Z,96668.22
2022-12-26T21:17:07.511Z,96666.50
2022-12-26T21:19:34.016Z,96655.09
2022-12-26T21:22:01.713Z,96658.47
2022-12-26T21:24:30.403Z,96646.78
2022-12-26T21:26:57.420Z,96632.41
2022-12-26T21:29:27.923Z,96647.19
2022-12-26T21:31:54.632Z,96653.84
2022-12-26T21:34:22.794Z,96641.91
2022-12-26T21:37:08.139Z,96652.22
2022-12-26T21:39:35.228Z,96653.03
2022-12-26T21:42:02.151Z,96651.84
2022-12-26T21:44:29.492Z,96650.31
2022-12-26T21:46:56.427Z,96648.56
2022-12-26T21:49:23.308Z,96656.84
2022-12-26T21:51:50.320Z,96641.25
2022-12-26T21:54:35.755Z,96641.81
2022-12-26T21:57:02.356Z,96650.09
2022-12-26T21:59:47.518Z,96650.66
2022-12-26T22:02:34.801Z,96637.50
2022-12-26T22:05:01.873Z,96648.50
2022-12-26T22:07:28.321Z,96643.59
2022-12-26T22:09:55.246Z,96643.47
2022-12-26T22:12:40.572Z,96637.22
2022-12-26T22:15:27.692Z,96642.13
2022-12-26T22:17:54.153Z,96640.38
2022-12-26T22:20:20.800Z,96631.91
2022-12-26T22:22:47.633Z,96636.81
2022-12-26T22:25:14.463Z,96646.72
2022-12-26T22:27:41.327Z,96640.06
2022-12-26T22:30:08.729Z,96648.34
2022-12-26T22:32:35.500Z,96639.81
2022-12-26T22:35:02.005Z,96631.38
2022-12-26T22:37:28.517Z,96629.75
2022-12-26T22:39:55.688Z,96635.59
2022-12-26T22:42:22.302Z,96633.69
2022-12-26T22:44:49.078Z,96630.16
2022-12-26T22:47:15.764Z,96630.97
2022-12-26T22:49:42.490Z,96630.25
2022-12-26T22:52:15.523Z,96626.03
2022-12-26T22:54:43.989Z,96630.81
2022-12-26T22:57:10.444Z,96620.34
2022-12-26T23:00:06.889Z,96626.75
2022-12-26T23:02:24.091Z,96625.94
2022-12-26T23:04:50.805Z,96630.97
2022-12-26T23:07:19.151Z,96625.78
2022-12-26T23:09:46.176Z,96631.91
2022-12-26T23:12:31.354Z,96643.28
2022-12-26T23:14:58.080Z,96635.69
2022-12-26T23:17:43.417Z,96630.53
2022-12-26T23:20:30.772Z,96635.84
2022-12-26T23:22:57.737Z,96646.00
2022-12-26T23:25:24.449Z,96634.06
2022-12-26T23:28:09.877Z,96639.66
2022-12-26T23:30:36.445Z,96644.81
2022-12-26T23:33:03.147Z,96637.50
2022-12-26T23:35:30.175Z,96646.59
2022-12-26T23:37:56.743Z,96633.81
2022-12-26T23:40:23.718Z,96633.69
2022-12-26T23:42:50.740Z,96636.00
2022-12-26T23:45:17.406Z,96631.09
2022-12-26T23:47:44.352Z,96626.66
2022-12-26T23:50:11.468Z,96623.78
2022-12-26T23:52:38.467Z,96628.38
2022-12-26T23:55:05.488Z,96632.72
2022-12-26T23:57:32.238Z,96639.56
2022-12-26T23:59:59.029Z,96528.31
